Latest Coastal Weather Observations for Dennes Point

IDT60701

Issued at 12:41 pm EST Monday 31 August 2015 (issued every 10 minutes, with the page automatically refreshed every 10 minutes)

About coastal observations | Map of coastal stations | Coastal observations for TAS | Marine services | Other Formats
Station Details ID: 094255 Name: DENNES POINT Lat: -43.06 Lon: 147.36 Height: 5.67 m
Data from the previous 72 hours. | See also: Recent months at Dennes Point
Date/Time
EST
Temp

°C
Wind Pressure Rain
since 9am
mm
Weather Cloud Vis
km
Sea
Height
m
Swell
Dir
 
Speed
knots
Gust
knots
hPa Trend Height
m
Period
s
Dir
31/12:30pm 9.9 SW 6 9 1021.0 - 0.0 - - - - - - -
31/12:00pm 9.9 WSW 7 9 1021.2 - 0.0 - - - - - - -
31/11:30am 10.0 WSW 7 9 1021.6 - 0.0 - - - - - - -
31/11:00am 9.2 WSW 3 5 1021.8 - 0.0 - - - - - - -
31/10:30am 9.1 SSE 2 5 1022.0 - 0.0 - - - - - - -
31/10:00am 8.5 WSW 5 6 1022.1 - 0.0 - - - - - - -
31/09:30am 8.7 WSW 5 7 1022.3 - 0.0 - - - - - - -
31/09:00am 8.7 S 2 4 1022.4 - 4.0 - - - - - - -
31/08:30am 8.1 SSW 5 7 1022.4 - 4.0 - - - - - - -
31/08:00am 6.9 SSW 4 5 1022.6 - 4.0 - - - - - - -
31/07:30am 5.7 SSW 3 4 1022.3 - 3.8 - - - - - - -
31/07:00am 6.4 S 3 4 1022.3 - 3.8 - - - - - - -
31/06:30am 6.6 SW 3 4 1022.2 - 3.8 - - - - - - -
31/06:00am 6.6 S 2 3 1022.2 - 3.8 - - - - - - -
31/05:30am 6.6 SSW 4 6 1022.3 - 3.8 - - - - - - -
31/05:00am 6.7 S 4 9 1022.5 - 3.8 - - - - - - -
31/04:30am 6.4 SW 3 4 1022.5 - 3.4 - - - - - - -
31/04:00am 5.8 SW 4 5 1022.6 - 3.4 - - - - - - -
31/03:30am 6.8 WSW 6 7 1022.7 - 3.2 - - - - - - -
31/03:00am 6.7 WSW 4 5 1022.7 - 3.2 Recent precip. - - - - - -
31/02:30am 6.7 SW 3 5 1023.2 - 2.8 - - - - - - -
31/02:00am 6.7 SSW 4 5 1023.5 - 1.6 - - - - - - -
31/01:30am 7.0 WSW 9 11 1023.6 - 1.2 - - - - - - -
31/01:00am 6.3 SSW 6 7 1023.8 - 1.2 - - - - - - -
31/12:30am 6.4 SW 5 6 1023.9 - 1.2 - - - - - - -
31/12:00am 6.8 SSW 4 5 1024.2 - 1.0 Recent precip. - - - - - -
 
Date/Time
EST
Temp

°C
Wind Pressure Rain
since 9am
mm
Weather Cloud Vis
km
Sea
Height
m
Swell
Dir
 
Speed
knots
Gust
knots
hPa Trend Height
m
Period
s
Dir
30/11:30pm 6.9 SSW 3 4 1024.4 - 0.6 - - - - - - -
30/11:00pm 6.7 SW 6 8 1024.5 - 0.4 - - - - - - -
30/10:30pm 6.6 SW 5 6 1024.7 - 0.4 - - - - - - -
30/10:00pm 6.7 SW 4 6 1024.9 - 0.4 - - - - - - -
30/09:30pm 7.0 SW 6 7 1025.0 - 0.4 - - - - - - -
30/09:00pm 7.0 SW 5 6 1024.9 - 0.4 - - - - - - -
30/08:30pm 7.1 SW 4 5 1024.9 - 0.4 - - - - - - -
30/08:00pm 7.1 SW 6 7 1025.0 - 0.4 - - - - - - -
30/07:30pm 7.2 SW 6 8 1024.8 - 0.4 - - - - - - -
30/07:00pm 7.0 SSW 5 8 1024.9 - 0.4 - - - - - - -
30/06:30pm 7.2 SSW 7 9 1024.7 - 0.4 - - - - - - -
30/06:00pm 7.0 SSW 4 5 1024.6 - 0.4 - - - - - - -
30/05:30pm 7.6 SSW 5 6 1024.4 - 0.4 - - - - - - -
30/05:00pm 7.6 SSW 6 9 1024.2 - 0.4 - - - - - - -
30/04:30pm 8.8 SW 5 7 1024.2 - 0.4 - - - - - - -
30/04:00pm 8.2 SW 6 8 1024.5 - 0.4 - - - - - - -
30/03:30pm 8.1 SSW 7 11 1024.6 - 0.4 - - - - - - -
30/03:00pm 9.5 SW 8 11 1024.3 - 0.0 - - - - - - -
30/02:30pm 8.8 SW 9 13 1024.4 - 0.0 - - - - - - -
30/02:00pm 8.7 SSW 8 15 1024.4 - 0.0 - - - - - - -
30/01:30pm 9.7 SW 9 13 1024.4 - 0.0 - - - - - - -
30/01:00pm 9.7 SW 10 14 1024.4 - 0.0 - - - - - - -
30/12:30pm 9.1 SW 10 14 1024.7 - 0.0 - - - - - - -
30/12:00pm 8.7 S 8 16 1025.5 - 0.0 - - - - - - -
30/11:30am 8.7 SSW 9 14 1025.9 - 0.0 - - - - - - -
30/11:00am 8.9 SSW 9 13 1025.9 - 0.0 - - - - - - -
30/10:30am 9.0 SSW 11 16 1026.1 - 0.0 - - - - - - -
30/10:00am 8.0 SW 9 15 1026.2 - 0.0 - - - - - - -
30/09:30am 8.0 SW 7 11 1026.4 - 0.0 - - - - - - -
30/09:00am 7.4 SSW 7 10 1026.4 - 1.2 Rain - - - - - -
30/08:30am 7.5 S 7 14 1026.2 - 1.0 - - - - - - -
30/08:00am 7.4 SSW 5 8 1025.9 - 1.0 - - - - - - -
30/07:30am 6.8 SW 6 10 1025.7 - 1.0 - - - - - - -
30/07:00am 6.7 SW 6 10 1025.7 - 1.0 - - - - - - -
30/06:30am 6.8 SSW 9 15 1025.4 - 1.0 - - - - - - -
30/06:00am 6.4 SSW 9 13 1025.2 - 1.0 - - - - - - -
30/05:30am 6.6 SW 6 10 1025.0 - 1.0 - - - - - - -
30/05:00am 6.8 SW 9 14 1024.9 - 1.0 - - - - - - -
30/04:30am 6.7 SSW 5 8 1024.9 - 1.0 - - - - - - -
30/04:00am 7.2 SW 6 9 1024.7 - 1.0 - - - - - - -
30/03:30am 6.9 SW 7 10 1024.8 - 1.0 - - - - - - -
30/03:00am 7.1 SW 8 12 1025.0 - 1.0 - - - - - - -
30/02:30am 7.1 SW 7 13 1025.3 - 1.0 - - - - - - -
30/02:00am 7.5 SW 7 11 1025.6 - 1.0 - - - - - - -
30/01:30am 7.1 SW 8 12 1025.8 - 1.0 - - - - - - -
30/01:00am 7.2 SSW 6 9 1025.9 - 1.0 - - - - - - -
30/12:30am 7.5 SW 7 9 1025.9 - 1.0 - - - - - - -
30/12:00am 7.3 SSW 7 10 1026.1 - 1.0 - - - - - - -
 
Date/Time
EST
Temp

°C
Wind Pressure Rain
since 9am
mm
Weather Cloud Vis
km
Sea
Height
m
Swell
Dir
 
Speed
knots
Gust
knots
hPa Trend Height
m
Period
s
Dir
29/11:30pm 7.4 SSW 9 16 1026.1 - 1.0 - - - - - - -
29/11:00pm 7.7 SSW 8 13 1026.1 - 1.0 - - - - - - -
29/10:30pm 7.6 SSW 8 15 1026.0 - 1.0 - - - - - - -
29/10:00pm 7.7 SSW 10 16 1026.2 - 1.0 - - - - - - -
29/09:30pm 7.7 SSW 8 13 1026.2 - 1.0 - - - - - - -
29/09:00pm 7.8 SSW 9 15 1026.1 - 1.0 - - - - - - -
29/08:30pm 8.0 SSW 9 14 1026.0 - 1.0 - - - - - - -
29/08:00pm 7.9 SSW 10 14 1025.7 - 1.0 - - - - - - -
29/07:30pm 7.9 SSW 9 16 1025.6 - 1.0 - - - - - - -
29/07:00pm 8.0 SSW 9 14 1025.3 - 1.0 - - - - - - -
29/06:30pm 8.0 SSW 10 16 1025.0 - 1.0 - - - - - - -
29/06:00pm 8.0 SSW 8 16 1024.5 - 1.0 - - - - - - -
29/05:30pm 8.1 SSW 8 13 1024.1 - 1.0 - - - - - - -
29/05:00pm 8.0 SSW 9 13 1023.9 - 1.0 - - - - - - -
29/04:30pm 8.1 SSW 10 15 1023.7 - 1.0 - - - - - - -
29/04:00pm 8.2 SSW 9 17 1023.6 - 1.0 - - - - - - -
29/03:30pm 8.3 SSW 10 15 1023.6 - 1.0 - - - - - - -
29/03:00pm 8.4 SSW 12 19 1023.4 - 1.0 - - - - - - -
29/02:30pm 8.1 SSW 11 19 1023.3 - 1.0 - - - - - - -
29/02:00pm 8.2 SSW 8 17 1023.1 - 1.0 - - - - - - -
29/01:30pm 8.2 SSW 9 16 1023.1 - 1.0 - - - - - - -
29/01:00pm 8.3 SSW 11 17 1023.0 - 1.0 - - - - - - -
29/12:30pm 8.3 SSW 13 22 1023.0 - 0.8 - - - - - - -
29/12:00pm 8.2 SSW 12 18 1023.2 - 0.8 Recent precip. - - - - - -
29/11:30am 8.4 SSW 13 19 1023.3 - 0.8 - - - - - - -
29/11:00am 8.3 SSW 11 15 1023.3 - 0.6 - - - - - - -
29/10:30am 8.2 SSW 11 18 1023.2 - 0.6 - - - - - - -
29/10:00am 8.3 SSW 10 14 1023.0 - 0.6 - - - - - - -
29/09:30am 8.4 SSW 9 17 1023.0 - 0.4 - - - - - - -
29/09:00am 8.1 SSW 13 19 1022.9 - 29.6 Recent precip. - - - - - -
29/08:30am 8.3 SSW 13 21 1022.4 - 29.0 - - - - - - -
29/08:00am 8.6 SSW 11 20 1022.0 - 28.8 - - - - - - -
29/07:30am 8.5 SSW 12 19 1021.6 - 28.4 - - - - - - -
29/07:00am 8.8 SSW 12 22 1021.0 - 27.4 - - - - - - -
29/06:30am 9.0 S 13 21 1020.5 - 26.6 - - - - - - -
29/06:00am 9.1 SSW 9 19 1020.1 - 25.4 Rain - - - - - -
29/05:30am 8.6 S 7 13 1019.8 - 22.8 - - - - - - -
29/05:00am 8.5 SSW 9 17 1019.4 - 21.2 - - - - - - -
29/04:30am 7.7 SW 10 16 1019.0 - 19.8 - - - - - - -
29/04:00am 7.1 SW 12 17 1018.9 - 19.0 - - - - - - -
29/03:30am 6.8 SW 9 13 1018.9 - 18.2 - - - - - - -
29/03:00am 6.7 SW 8 11 1019.0 - 17.6 Rain - - - - - -
29/02:30am 6.7 SW 8 14 1019.1 - 17.2 - - - - - - -
29/02:00am 6.6 SW 7 9 1019.0 - 17.2 - - - - - - -
29/01:30am 6.7 SW 7 11 1018.8 - 16.4 - - - - - - -
29/01:00am 6.8 SSW 9 14 1018.9 - 14.8 - - - - - - -
29/12:30am 6.5 SW 6 11 1018.7 - 14.6 - - - - - - -
29/12:00am 6.4 SSW 10 15 1019.1 - 13.6 Recent precip. - - - - - -
 
Date/Time
EST
Temp

°C
Wind Pressure Rain
since 9am
mm
Weather Cloud Vis
km
Sea
Height
m
Swell
Dir
 
Speed
knots
Gust
knots
hPa Trend Height
m
Period
s
Dir
28/11:30pm 6.7 SW 17 23 1018.8 - 13.4 - - - - - - -
28/11:00pm 6.2 WSW 15 24 1019.1 - 13.0 - - - - - - -
28/10:39pm 6.6 WSW 19 31 1019.1 - 12.4 - - - - - - -
28/10:30pm 6.7 SW 19 27 1019.4 - 12.2 - - - - - - -
28/10:00pm 5.7 WSW 18 26 1020.0 - 12.2 - - - - - - -
28/09:38pm 5.5 WSW 19 29 1020.3 - 12.0 - - - - - - -
28/09:30pm 5.7 WSW 20 29 1020.5 - 11.8 - - - - - - -
28/09:00pm 4.8 WSW 16 21 1020.9 - 11.4 Recent precip. - - - - - -
28/08:30pm 4.2 WSW 18 22 1021.6 - 10.0 - - - - - - -
28/08:00pm 4.5 WSW 17 21 1021.8 - 8.8 - - - - - - -
28/07:30pm 4.1 WSW 16 20 1022.5 - 8.0 - - - - - - -
28/07:00pm 4.3 WSW 15 20 1022.9 - 6.8 - - - - - - -
28/06:41pm 4.3 WSW 15 25 1023.2 - 6.6 - - - - - - -
28/06:30pm 4.1 WSW 15 24 1023.3 - 6.2 - - - - - - -
28/06:00pm 3.4 SW 17 26 1023.9 - 6.0 Rain - - - - - -
28/05:51pm 5.2 SW 19 29 1024.0 - 5.0 - - - - - - -
28/05:30pm 5.1 WSW 17 24 1023.4 - 5.0 - - - - - - -
28/05:17pm 5.6 SW 15 25 1023.6 - 5.0 - - - - - - -
28/05:00pm 5.5 SW 15 21 1023.8 - 4.6 - - - - - - -
28/04:40pm 5.5 SW 15 31 1024.3 - 4.6 - - - - - - -
28/04:38pm 6.0 SW 13 27 1024.2 - 4.6 - - - - - - -
28/04:30pm 6.0 SW 9 15 1024.2 - 4.6 - - - - - - -
28/04:08pm 6.0 SW 16 27 1024.5 - 4.6 - - - - - - -
28/04:00pm 6.1 SW 19 27 1024.3 - 4.6 - - - - - - -
28/03:56pm 6.8 SW 15 26 1024.4 - 4.6 - - - - - - -
28/03:30pm 7.4 SSW 15 23 1024.5 - 4.6 - - - - - - -
28/03:00pm 8.1 SW 12 19 1024.5 - 4.6 - - - - - - -
28/02:30pm 5.9 SSW 15 25 1024.9 - 4.6 - - - - - - -
28/02:00pm 4.8 S 13 25 1025.3 - 4.6 - - - - - - -
28/01:54pm 5.2 S 12 25 1025.5 - 4.6 - - - - - - -
28/01:30pm 8.1 SSW 16 25 1025.0 - 4.0 - - - - - - -
28/01:00pm 7.6 S 9 17 1025.6 - 4.0 - - - - - - -

Other Formats:

Comma delimited format used in spreadsheet applications
http://www.bom.gov.au/fwo/IDT60701/IDT60701.94988.axf

JavaScript Object Notation format (JSON) in row-major order
http://www.bom.gov.au/fwo/IDT60701/IDT60701.94988.json